Terminal Aerodrome Forecast
Issued by NWS Melbourne, FL

Home | Current Version | Previous Version | Text Only | Print | Product List | Glossary On
Versions: 1 2 3 4 5 6 7 8 9 10 11 12 13 14 15 16 17 18 19 20
236
FTUS42 KMLB 062329
TAFVRB
TAF
KVRB 062329Z 0700/0724 28008KT P6SM SKC
     FM070200 28006KT P6SM SKC
     FM071400 33011KT P6SM FEW040
     FM071900 05013KT P6SM FEW060=

USA.gov is the U.S. government's official web portal to all federal, state and local government web resources and services.